Trout Creek, Utah
Current Conditions -  °F | °C
As of 9:35 PM on Tuesday 21 Oct 2014 (Local Time) from KENV Reporting Station
Clear Clear  
Wind Chill: 52°   Ceiling: Unl
Heat Index: 52°   Visibility: 10mi
Dew Point: 28°   Wind: 10mph
Humidity: 41%   Direction: 10°N
Pressure: 30.09"   Gusts: NA
Location:  40.2503°N, 113.457°W
Report Text: KENV 220335Z AUTO 01009KT 10SM CLR 11/M02 A3009 RMK AO1
Loading
Personal Weather Stations






























Interactive Weather Map New forecast layout! Learn more

10-Day Weather Forecast

Advertisements
Track Severe Weather on mobile